Wildrose, North Dakota
Current Conditions -  °F | °C
As of 9:55 AM on Friday 28 Nov 2014 (Local Time) from KD60 Reporting Station
Overcast Overcast  
Wind Chill: -22°   Ceiling: 800
Heat Index: -13°   Visibility: 8mi
Dew Point: -13°   Wind: 14mph
Humidity: 100%   Direction: 110°ESE
Pressure: 29.7"   Gusts: NA
Location:  48.63°N, 103.18°W
Report Text: KD60 281555Z AUTO 11012KT 8SM OVC008 M13/M13 A2970 RMK AO2
Loading
Personal Weather Stations






























Interactive Weather Map New forecast layout! Learn more

10-Day Weather Forecast

Advertisements
Track Severe Weather on mobile